Time;durP1;ratioP1;P1;durP2;ratioP2;P2;SDS_P1;SDS_P2;PMS_P1;PMS_P2;Temp;Humidity;BMP_temperature;BMP_pressure;BME280_temperature;BME280_humidity;BME280_pressure;Samples;Min_cycle;Max_cycle;Signal;HPM_P1;HPM_P2
2023/06/01 00:00:56;;;;;;;7.00;3.50;;;17.20;1.00;;;;;;5076035;28;20457;-79
2023/06/01 00:03:24;;;;;;;6.40;3.87;;;17.20;99.90;;;;;;5075374;28;20778;-80
2023/06/01 00:05:51;;;;;;;9.13;3.60;;;17.10;1.00;;;;;;5075744;28;20462;-81
2023/06/01 00:08:18;;;;;;;5.10;2.80;;;17.10;99.90;;;;;;5075919;28;20445;-81
2023/06/01 00:10:46;;;;;;;5.60;3.47;;;17.00;1.00;;;;;;5075343;28;20975;-80
2023/06/01 00:13:13;;;;;;;5.90;3.40;;;16.80;99.90;;;;;;5075195;28;20490;-79
2023/06/01 00:15:39;;;;;;;9.00;4.00;;;16.90;99.90;;;;;;5077163;28;20482;-81
2023/06/01 00:18:08;;;;;;;8.47;4.00;;;16.80;99.90;;;;;;5077632;28;20520;-81
2023/06/01 00:20:35;;;;;;;10.97;4.20;;;16.80;99.90;;;;;;5077342;28;20505;-80
2023/06/01 00:23:02;;;;;;;5.27;3.43;;;16.70;99.90;;;;;;5075872;28;20447;-79
2023/06/01 00:25:29;;;;;;;6.63;4.03;;;16.70;1.00;;;;;;5077539;28;20481;-81
2023/06/01 00:27:57;;;;;;;6.57;3.57;;;16.70;1.00;;;;;;5077085;28;20460;-81
2023/06/01 00:30:24;;;;;;;8.43;4.27;;;16.60;99.90;;;;;;5076730;28;20447;-80
2023/06/01 00:32:50;;;;;;;6.90;4.03;;;16.60;93.60;;;;;;5075347;28;20482;-80
2023/06/01 00:35:17;;;;;;;10.07;4.37;;;16.60;33.60;;;;;;5075736;28;20478;-79
2023/06/01 00:37:44;;;;;;;7.73;4.73;;;16.50;99.90;;;;;;5077248;28;20457;-80
2023/06/01 00:40:12;;;;;;;6.00;4.20;;;16.40;99.90;;;;;;5079753;28;20446;-81
2023/06/01 00:42:39;;;;;;;9.07;4.80;;;16.40;99.90;;;;;;5078486;28;20977;-79
2023/06/01 00:45:07;;;;;;;7.80;4.23;;;16.40;99.90;;;;;;5078953;28;20469;-80
2023/06/01 00:47:40;;;;;;;5.63;4.47;;;16.40;1.00;;;;;;5079233;28;20464;-79
2023/06/01 00:50:07;;;;;;;8.47;5.00;;;16.30;99.90;;;;;;5078447;28;20521;-79
2023/06/01 00:52:34;;;;;;;6.90;4.50;;;16.30;1.00;;;;;;5076539;28;20812;-80
2023/06/01 00:55:01;;;;;;;9.20;4.50;;;16.20;1.00;;;;;;5077992;28;20563;-80
2023/06/01 00:57:29;;;;;;;10.67;5.07;;;16.20;1.00;;;;;;5076086;28;20457;-79
2023/06/01 00:59:56;;;;;;;5.93;4.70;;;16.10;1.00;;;;;;5077663;28;20448;-79
2023/06/01 01:02:24;;;;;;;8.70;5.10;;;16.10;29.70;;;;;;5077101;28;20470;-80
2023/06/01 01:04:52;;;;;;;6.60;4.90;;;16.00;1.00;;;;;;5077247;28;21021;-80
2023/06/01 01:07:26;;;;;;;7.33;5.70;;;16.00;21.50;;;;;;5077995;28;20562;-78
2023/06/01 01:10:00;;;;;;;6.63;4.93;;;15.90;99.90;;;;;;5077360;28;20458;-79
2023/06/01 01:12:33;;;;;;;6.83;5.53;;;15.90;99.90;;;;;;5077759;28;20517;-78
2023/06/01 01:15:08;;;;;;;10.33;5.50;;;15.90;99.90;;;;;;5079101;28;20466;-80
2023/06/01 01:17:42;;;;;;;6.97;5.00;;;15.80;99.90;;;;;;5080521;28;20461;-79
2023/06/01 01:20:15;;;;;;;10.93;5.53;;;15.70;1.00;;;;;;5080509;28;20938;-80
2023/06/01 01:23:02;;;;;;;5.80;4.63;;;15.70;1.00;;;;;;5080631;28;20469;-80
2023/06/01 01:25:51;;;;;;;8.20;5.57;;;15.60;1.00;;;;;;5080313;28;20485;-80
2023/06/01 01:28:38;;;;;;;8.53;6.10;;;15.60;1.00;;;;;;5079950;28;20434;-81
2023/06/01 01:31:07;;;;;;;9.77;6.13;;;15.40;41.70;;;;;;5080217;28;20445;-80
2023/06/01 01:33:35;;;;;;;9.60;6.50;;;15.40;99.90;;;;;;5079008;28;20854;-80
2023/06/01 01:36:02;;;;;;;12.30;6.20;;;15.40;99.90;;;;;;5078954;28;20499;-79
2023/06/01 01:38:29;;;;;;;10.80;6.37;;;15.30;28.70;;;;;;5079893;28;20450;-79
2023/06/01 01:40:56;;;;;;;10.00;6.03;;;15.30;99.90;;;;;;5079536;28;20447;-80
2023/06/01 01:43:23;;;;;;;9.13;6.37;;;15.20;99.90;;;;;;5078894;28;20454;-80
2023/06/01 01:45:58;;;;;;;11.40;7.43;;;15.20;99.90;;;;;;5079661;28;20462;-79
2023/06/01 01:48:32;;;;;;;13.07;7.53;;;15.20;99.90;;;;;;5080006;28;20450;-80
2023/06/01 01:51:07;;;;;;;11.50;7.70;;;15.10;99.90;;;;;;5079418;28;20450;-80
2023/06/01 01:53:36;;;;;;;7.40;6.03;;;15.00;99.90;;;;;;5078602;28;20474;-79
2023/06/01 01:56:04;;;;;;;9.83;7.37;;;15.00;99.90;;;;;;5077250;28;20472;-80
2023/06/01 01:58:31;;;;;;;9.87;7.60;;;15.00;99.90;;;;;;5078851;28;20966;-79
2023/06/01 02:01:00;;;;;;;11.07;7.03;;;14.90;99.90;;;;;;5078418;28;20958;-79
2023/06/01 02:03:27;;;;;;;10.10;7.00;;;14.90;99.90;;;;;;5077890;28;20512;-79
2023/06/01 02:05:54;;;;;;;9.10;7.07;;;14.90;99.90;;;;;;5078663;28;20485;-81
2023/06/01 02:08:20;;;;;;;10.93;6.80;;;14.80;99.90;;;;;;5078941;28;20943;-81
2023/06/01 02:10:47;;;;;;;11.30;7.53;;;14.80;99.90;;;;;;5079166;28;20478;-80
2023/06/01 02:13:14;;;;;;;17.60;7.77;;;14.80;99.90;;;;;;5077775;28;20821;-78
2023/06/01 02:15:41;;;;;;;12.47;8.33;;;14.70;99.90;;;;;;5078859;28;20475;-80
2023/06/01 02:18:10;;;;;;;11.23;8.47;;;14.60;99.90;;;;;;5078128;28;20454;-79
2023/06/01 02:20:37;;;;;;;11.07;8.53;;;14.50;99.90;;;;;;5077772;28;20482;-78
2023/06/01 02:23:04;;;;;;;10.70;7.90;;;14.40;99.90;;;;;;5077407;28;20464;-80
2023/06/01 02:25:31;;;;;;;12.50;8.47;;;14.40;99.90;;;;;;5077561;28;20938;-80
2023/06/01 02:27:58;;;;;;;10.13;8.03;;;14.30;99.90;;;;;;5077995;28;20497;-79
2023/06/01 02:30:24;;;;;;;10.60;9.37;;;14.20;1.00;;;;;;5076941;28;20453;-79
2023/06/01 02:32:52;;;;;;;12.93;8.30;;;14.20;99.90;;;;;;5077528;28;21084;-79
2023/06/01 02:35:20;;;;;;;11.30;8.40;;;14.10;1.00;;;;;;5077364;28;20655;-80
2023/06/01 02:37:47;;;;;;;13.87;10.10;;;14.10;1.00;;;;;;5077128;28;20456;-80
2023/06/01 02:40:14;;;;;;;13.73;9.20;;;14.00;1.00;;;;;;5076021;28;20453;-79
2023/06/01 02:42:41;;;;;;;17.97;9.57;;;13.90;1.00;;;;;;5075545;28;20458;-79
2023/06/01 02:45:09;;;;;;;17.27;9.93;;;13.90;1.00;;;;;;5076101;28;20474;-80
2023/06/01 02:47:36;;;;;;;15.20;10.50;;;13.90;1.00;;;;;;5076113;28;20460;-78
2023/06/01 02:50:04;;;;;;;13.10;10.50;;;13.80;1.00;;;;;;5075867;28;20451;-79
2023/06/01 02:52:33;;;;;;;15.40;10.27;;;13.90;1.00;;;;;;5075378;28;20488;-78
2023/06/01 02:54:59;;;;;;;16.90;10.97;;;13.80;1.00;;;;;;5075608;28;20471;-78
2023/06/01 02:57:26;;;;;;;17.27;10.63;;;13.70;1.00;;;;;;5073876;28;20444;-79
2023/06/01 02:59:53;;;;;;;14.40;10.90;;;13.70;1.00;;;;;;5073944;28;20457;-78
2023/06/01 03:02:20;;;;;;;18.17;11.87;;;13.80;1.00;;;;;;5074015;28;20458;-79
2023/06/01 03:04:48;;;;;;;20.10;11.50;;;13.80;1.00;;;;;;5074213;28;20825;-78
2023/06/01 03:07:14;;;;;;;18.13;11.47;;;13.70;1.00;;;;;;5074902;28;20449;-78
2023/06/01 03:09:43;;;;;;;15.40;10.60;;;13.70;1.00;;;;;;5075291;28;20890;-80
2023/06/01 03:12:10;;;;;;;16.20;11.27;;;13.80;1.00;;;;;;5074397;28;20446;-80
2023/06/01 03:14:37;;;;;;;14.40;10.07;;;13.80;99.90;;;;;;5074112;28;20490;-78
2023/06/01 03:17:04;;;;;;;17.80;10.70;;;13.80;99.90;;;;;;5075393;28;20837;-78
2023/06/01 03:19:31;;;;;;;19.80;11.30;;;13.80;99.90;;;;;;5074782;28;20553;-79
2023/06/01 03:21:57;;;;;;;14.63;10.60;;;13.70;99.90;;;;;;5074284;28;20451;-80
2023/06/01 03:24:27;;;;;;;15.40;11.27;;;13.60;99.90;;;;;;5073495;28;20445;-79
2023/06/01 03:26:55;;;;;;;16.07;10.53;;;13.50;99.90;;;;;;5074139;28;20475;-79
2023/06/01 03:29:22;;;;;;;16.50;11.50;;;13.60;99.90;;;;;;5074482;28;20501;-79
2023/06/01 03:31:49;;;;;;;14.53;10.27;;;13.50;99.90;;;;;;5073953;28;20603;-79
2023/06/01 03:34:16;;;;;;;14.97;11.30;;;13.50;99.90;;;;;;5073684;28;20484;-79
2023/06/01 03:36:47;;;;;;;15.03;10.70;;;13.50;99.90;;;;;;5074328;28;20544;-80
2023/06/01 03:39:15;;;;;;;14.53;9.50;;;13.30;99.90;;;;;;5074390;28;20447;-79
2023/06/01 03:41:42;;;;;;;14.87;11.30;;;13.30;99.90;;;;;;5074830;28;20868;-80
2023/06/01 03:44:11;;;;;;;16.33;10.80;;;13.30;99.90;;;;;;5079743;28;20866;-78
2023/06/01 03:46:38;;;;;;;17.43;11.27;;;13.30;99.90;;;;;;5081943;28;20467;-78
2023/06/01 03:49:05;;;;;;;16.47;10.10;;;13.30;99.90;;;;;;5082361;28;20535;-81
2023/06/01 03:51:32;;;;;;;12.40;9.77;;;13.30;99.90;;;;;;5075746;28;20463;-79
2023/06/01 03:53:59;;;;;;;14.57;9.40;;;13.30;99.90;;;;;;5078889;28;20486;-79
2023/06/01 03:56:25;;;;;;;14.00;8.80;;;13.20;75.10;;;;;;5077516;28;20520;-77
2023/06/01 03:58:53;;;;;;;18.70;10.07;;;13.20;25.10;;;;;;5080376;28;20459;-79
2023/06/01 04:01:22;;;;;;;18.30;10.23;;;13.20;1.00;;;;;;5076463;28;20530;-80
2023/06/01 04:03:50;;;;;;;15.13;9.20;;;13.10;1.00;;;;;;5075185;28;20453;-80
2023/06/01 04:06:18;;;;;;;15.17;9.33;;;13.10;1.00;;;;;;5074969;28;20473;-80
2023/06/01 04:08:49;;;;;;;15.10;10.10;;;13.10;1.00;;;;;;5076505;28;20453;-81
2023/06/01 04:11:16;;;;;;;16.33;8.80;;;13.10;1.00;;;;;;5076278;28;20551;-79
2023/06/01 04:13:43;;;;;;;14.00;8.93;;;13.20;1.00;;;;;;5078396;28;20482;-82
2023/06/01 04:16:10;;;;;;;10.50;8.87;;;13.20;1.00;;;;;;5079414;28;20565;-79
2023/06/01 04:18:38;;;;;;;13.90;9.90;;;13.20;1.00;;;;;;5080060;28;20516;-82
2023/06/01 04:21:06;;;;;;;17.83;12.37;;;13.20;1.00;;;;;;5078765;28;20452;-80
2023/06/01 04:23:33;;;;;;;16.10;11.33;;;13.20;99.90;;;;;;5078881;28;20582;-81
2023/06/01 04:26:02;;;;;;;19.07;12.00;;;13.30;99.90;;;;;;5079269;28;20482;-81
2023/06/01 04:28:29;;;;;;;18.43;14.53;;;13.30;99.90;;;;;;5079847;28;20449;-80
2023/06/01 04:30:56;;;;;;;20.37;14.47;;;13.30;99.90;;;;;;5079465;28;20489;-81
2023/06/01 04:33:24;;;;;;;19.97;14.97;;;13.40;33.40;;;;;;5078849;28;20572;-81
2023/06/01 04:35:53;;;;;;;22.27;16.10;;;13.40;25.50;;;;;;5079046;28;20971;-79
2023/06/01 04:38:20;;;;;;;18.93;15.40;;;13.50;1.00;;;;;;5079695;28;20459;-81
2023/06/01 04:40:47;;;;;;;24.13;15.27;;;13.50;1.00;;;;;;5079933;28;20474;-79
2023/06/01 04:43:18;;;;;;;20.50;14.60;;;13.50;1.00;;;;;;5078715;28;20460;-79
2023/06/01 04:45:46;;;;;;;18.13;15.20;;;13.50;1.00;;;;;;5079733;28;20523;-81
2023/06/01 04:48:14;;;;;;;18.63;14.50;;;13.50;99.90;;;;;;5079037;28;20453;-80
2023/06/01 04:50:41;;;;;;;16.20;12.53;;;13.40;99.90;;;;;;5077978;28;20532;-80
2023/06/01 04:53:09;;;;;;;15.27;11.20;;;13.30;99.90;;;;;;5077434;28;20449;-79
2023/06/01 04:55:36;;;;;;;16.33;11.87;;;13.20;99.90;;;;;;5078455;28;20483;-78
2023/06/01 04:58:03;;;;;;;16.50;12.30;;;13.30;99.90;;;;;;5078232;28;20836;-80
2023/06/01 05:00:30;;;;;;;14.63;12.73;;;13.30;99.90;;;;;;5078113;28;20453;-79
2023/06/01 05:02:57;;;;;;;17.00;12.30;;;13.30;99.90;;;;;;5077496;28;20468;-79
2023/06/01 05:05:23;;;;;;;15.90;12.67;;;13.30;99.90;;;;;;5078943;28;20844;-80
2023/06/01 05:07:50;;;;;;;16.50;12.90;;;13.40;99.90;;;;;;5079380;28;20563;-79
2023/06/01 05:10:19;;;;;;;17.13;12.83;;;13.50;99.90;;;;;;5077924;28;20458;-80
2023/06/01 05:12:46;;;;;;;17.20;13.67;;;13.50;99.90;;;;;;5076913;28;20447;-80
2023/06/01 05:15:13;;;;;;;20.33;12.80;;;13.50;99.90;;;;;;5078065;28;20493;-81
2023/06/01 05:17:40;;;;;;;17.00;13.30;;;13.50;1.00;;;;;;5078572;28;20506;-79
2023/06/01 05:20:11;;;;;;;18.50;12.07;;;13.60;99.90;;;;;;5078611;28;20464;-80
2023/06/01 05:22:38;;;;;;;13.10;11.70;;;13.50;99.90;;;;;;5077815;28;20886;-79
2023/06/01 05:25:06;;;;;;;15.03;12.47;;;13.50;99.90;;;;;;5076762;28;20467;-78
2023/06/01 05:27:35;;;;;;;15.10;11.43;;;13.50;99.90;;;;;;5077470;28;20553;-79
2023/06/01 05:30:01;;;;;;;17.00;12.73;;;13.50;1.00;;;;;;5077065;28;20485;-78
2023/06/01 05:32:29;;;;;;;21.40;14.07;;;13.50;99.90;;;;;;5076040;28;20461;-79
2023/06/01 05:34:56;;;;;;;19.63;13.70;;;13.40;1.00;;;;;;5075857;28;20493;-78
2023/06/01 05:37:22;;;;;;;18.93;13.67;;;13.40;99.90;;;;;;5076979;28;20464;-79
2023/06/01 05:39:49;;;;;;;20.97;14.40;;;13.40;99.90;;;;;;5077308;28;20456;-79
2023/06/01 05:42:16;;;;;;;17.93;13.50;;;13.40;99.90;;;;;;5077390;28;20473;-79
2023/06/01 05:44:44;;;;;;;16.33;11.37;;;13.40;99.90;;;;;;5076624;28;20443;-79
2023/06/01 05:47:11;;;;;;;13.93;11.73;;;13.40;1.00;;;;;;5076846;28;20831;-78
2023/06/01 05:49:38;;;;;;;16.77;11.77;;;13.50;99.90;;;;;;5077924;28;20457;-79
2023/06/01 05:52:06;;;;;;;13.90;12.40;;;13.60;99.90;;;;;;5080952;28;20482;-80
2023/06/01 05:54:32;;;;;;;13.03;11.63;;;13.70;99.90;;;;;;5080192;28;20488;-79
2023/06/01 05:56:59;;;;;;;18.13;11.70;;;13.60;99.90;;;;;;5081150;28;20482;-80
2023/06/01 05:59:26;;;;;;;17.60;11.03;;;13.70;99.90;;;;;;5082729;28;20975;-79
2023/06/01 06:01:54;;;;;;;12.93;10.50;;;13.90;99.90;;;;;;5082349;28;20481;-81
2023/06/01 06:04:21;;;;;;;12.57;9.33;;;13.80;99.90;;;;;;5081429;28;20486;-80
2023/06/01 06:06:48;;;;;;;15.57;9.13;;;13.90;99.90;;;;;;5083151;28;20599;-81
2023/06/01 06:09:15;;;;;;;13.70;9.27;;;13.90;99.90;;;;;;5083197;28;20488;-79
2023/06/01 06:11:43;;;;;;;13.93;9.27;;;14.00;99.90;;;;;;5082658;28;20847;-80
2023/06/01 06:14:11;;;;;;;12.63;8.20;;;14.00;1.00;;;;;;5081066;28;20589;-80
2023/06/01 06:16:38;;;;;;;11.70;7.77;;;14.00;1.00;;;;;;5081947;28;20482;-81
2023/06/01 06:19:06;;;;;;;14.30;9.37;;;14.20;1.00;;;;;;5081609;28;20531;-81
2023/06/01 06:21:33;;;;;;;12.77;8.73;;;14.20;99.90;;;;;;5081982;28;20984;-80
2023/06/01 06:24:00;;;;;;;12.87;8.00;;;14.20;99.90;;;;;;5080516;28;20505;-80
2023/06/01 06:26:27;;;;;;;12.70;8.37;;;14.20;15.90;;;;;;5080558;28;20533;-80
2023/06/01 06:28:54;;;;;;;13.20;7.37;;;14.20;1.00;;;;;;5081056;28;20437;-80
2023/06/01 06:31:22;;;;;;;11.30;8.60;;;14.20;99.90;;;;;;5080125;28;20508;-78
2023/06/01 06:33:49;;;;;;;16.23;8.23;;;14.20;99.90;;;;;;5080064;28;20477;-80
2023/06/01 06:36:17;;;;;;;12.90;8.23;;;14.30;1.00;;;;;;5079756;28;20469;-80
2023/06/01 06:38:45;;;;;;;11.70;8.30;;;14.40;82.90;;;;;;5080783;28;20467;-80
2023/06/01 06:41:12;;;;;;;13.33;8.73;;;14.30;1.00;;;;;;5080097;28;20461;-81
2023/06/01 06:43:39;;;;;;;15.30;8.37;;;14.30;1.00;;;;;;5078948;28;20478;-81
2023/06/01 06:46:06;;;;;;;12.10;8.43;;;14.50;99.90;;;;;;5080189;28;20564;-80
2023/06/01 06:48:32;;;;;;;11.87;8.27;;;14.60;99.90;;;;;;5080276;28;20478;-80
2023/06/01 06:50:59;;;;;;;18.00;10.63;;;14.60;99.90;;;;;;5079448;28;20457;-80
2023/06/01 06:53:27;;;;;;;16.30;8.37;;;14.60;1.00;;;;;;5079477;28;20465;-80
2023/06/01 06:55:54;;;;;;;12.83;7.50;;;14.70;99.90;;;;;;5078155;28;20491;-78
2023/06/01 06:58:21;;;;;;;10.47;7.77;;;14.80;1.00;;;;;;5080450;28;20453;-81
2023/06/01 07:00:48;;;;;;;13.30;8.17;;;14.90;1.00;;;;;;5080585;28;20534;-80
2023/06/01 07:03:15;;;;;;;11.93;8.53;;;15.00;1.00;;;;;;5078623;28;20450;-79
2023/06/01 07:05:42;;;;;;;13.00;8.20;;;15.00;99.90;;;;;;5081835;28;20475;-80
2023/06/01 07:08:08;;;;;;;13.27;8.80;;;15.10;99.90;;;;;;5092831;28;20477;-79
2023/06/01 07:10:37;;;;;;;13.40;9.53;;;15.20;99.90;;;;;;5090743;28;20454;-79
2023/06/01 07:13:03;;;;;;;12.10;9.17;;;15.20;99.90;;;;;;5082412;28;20461;-80
2023/06/01 07:15:30;;;;;;;13.73;8.07;;;15.10;99.90;;;;;;5077676;28;20495;-81
2023/06/01 07:17:57;;;;;;;11.43;7.90;;;15.20;1.00;;;;;;5077958;28;20455;-80
2023/06/01 07:20:24;;;;;;;11.93;8.23;;;15.30;99.90;;;;;;5077908;28;20447;-79
2023/06/01 07:22:50;;;;;;;10.60;8.20;;;15.40;99.90;;;;;;5077507;28;20823;-79
2023/06/01 07:25:17;;;;;;;13.63;8.47;;;15.60;99.90;;;;;;5077661;28;20840;-79
2023/06/01 07:27:48;;;;;;;11.17;7.03;;;15.60;99.90;;;;;;5077621;28;20474;-81
2023/06/01 07:30:15;;;;;;;14.60;7.90;;;15.70;1.00;;;;;;5077838;28;20973;-80
2023/06/01 07:32:43;;;;;;;9.43;7.60;;;15.70;1.00;;;;;;5077917;28;20931;-81
2023/06/01 07:35:10;;;;;;;12.93;7.60;;;15.80;1.00;;;;;;5077189;28;20831;-81
2023/06/01 07:37:37;;;;;;;10.67;8.07;;;15.70;1.00;;;;;;5077848;28;20839;-83
2023/06/01 07:40:05;;;;;;;10.33;7.70;;;15.80;1.00;;;;;;5078612;28;20497;-80
2023/06/01 07:42:33;;;;;;;13.60;8.20;;;15.90;1.00;;;;;;5077050;28;20470;-84
2023/06/01 07:45:02;;;;;;;18.40;8.57;;;16.00;1.00;;;;;;5077735;28;20574;-80
2023/06/01 07:47:29;;;;;;;11.90;8.10;;;15.90;1.00;;;;;;5077736;28;20456;-81
2023/06/01 07:49:56;;;;;;;9.93;7.73;;;15.90;99.90;;;;;;5077955;28;20455;-82
2023/06/01 07:52:23;;;;;;;13.23;10.40;;;16.10;1.00;;;;;;5077490;28;20459;-79
2023/06/01 07:54:50;;;;;;;12.00;6.53;;;16.10;99.90;;;;;;5077915;28;20551;-82
2023/06/01 07:57:17;;;;;;;9.47;7.37;;;16.20;99.90;;;;;;5075971;28;20453;-80
2023/06/01 07:59:43;;;;;;;14.70;7.67;;;16.30;99.90;;;;;;5077480;28;20455;-80
2023/06/01 08:02:13;;;;;;;11.07;8.33;;;16.20;99.90;;;;;;5077341;28;20501;-81
2023/06/01 08:04:40;;;;;;;12.43;8.00;;;16.20;99.90;;;;;;5076611;28;20448;-81
2023/06/01 08:07:08;;;;;;;13.03;8.17;;;16.20;99.90;;;;;;5078759;28;20450;-83
2023/06/01 08:09:37;;;;;;;15.03;8.40;;;16.30;99.90;;;;;;5078442;28;20463;-81
2023/06/01 08:12:05;;;;;;;13.70;8.70;;;16.50;99.90;;;;;;5077363;28;20552;-80
2023/06/01 08:14:33;;;;;;;11.90;7.60;;;16.50;99.90;;;;;;5077133;28;20561;-80
2023/06/01 08:17:01;;;;;;;13.60;8.93;;;16.60;99.90;;;;;;5078663;28;20545;-81
2023/06/01 08:19:29;;;;;;;11.90;8.33;;;16.60;99.90;;;;;;5079421;28;20493;-81
2023/06/01 08:21:57;;;;;;;12.50;8.80;;;16.70;97.40;;;;;;5078117;28;20455;-82
2023/06/01 08:24:24;;;;;;;14.13;8.23;;;16.60;86.20;;;;;;5078788;28;20448;-81
2023/06/01 08:26:51;;;;;;;12.07;7.57;;;16.60;90.50;;;;;;5080282;28;20613;-80
2023/06/01 08:29:18;;;;;;;20.73;10.13;;;16.50;90.40;;;;;;5078297;28;20447;-81
2023/06/01 08:31:45;;;;;;;13.00;9.40;;;16.60;79.40;;;;;;5078316;28;20482;-81
2023/06/01 08:34:12;;;;;;;15.70;8.87;;;16.70;99.90;;;;;;5077466;28;20468;-82
2023/06/01 08:36:40;;;;;;;13.23;8.60;;;16.90;70.00;;;;;;5077976;28;20533;-82
2023/06/01 08:39:21;;;;;;;18.40;10.50;;;16.90;99.90;;;;;;5078204;28;20457;-82
2023/06/01 08:42:05;;;;;;;11.77;8.37;;;17.10;99.90;;;;;;5077656;28;20453;-81
2023/06/01 08:44:37;;;;;;;11.63;7.50;;;17.30;99.90;;;;;;5076602;28;20531;-82
2023/06/01 08:47:04;;;;;;;14.10;8.27;;;17.50;99.90;;;;;;5077662;28;20440;-80
2023/06/01 08:49:32;;;;;;;13.60;7.90;;;17.70;1.00;;;;;;5076790;28;20797;-81
2023/06/01 08:52:02;;;;;;;10.57;7.40;;;17.60;1.00;;;;;;5077126;28;21048;-82
2023/06/01 08:54:30;;;;;;;11.50;8.90;;;17.80;1.00;;;;;;5075573;28;20544;-81
2023/06/01 08:57:00;;;;;;;10.97;7.70;;;18.00;1.00;;;;;;5074948;28;20551;-82
2023/06/01 08:59:27;;;;;;;11.10;8.03;;;18.20;1.00;;;;;;5079466;28;20448;-81
2023/06/01 09:01:54;;;;;;;11.77;8.30;;;18.40;1.00;;;;;;5080794;28;20544;-82
2023/06/01 09:04:21;;;;;;;13.57;9.23;;;18.50;1.00;;;;;;5080765;28;20453;-81
2023/06/01 09:06:48;;;;;;;14.10;8.40;;;18.60;1.00;;;;;;5080535;28;20473;-82
2023/06/01 09:09:16;;;;;;;12.70;7.90;;;18.70;1.00;;;;;;5081235;28;20463;-80
2023/06/01 09:11:44;;;;;;;12.43;8.47;;;18.80;1.00;;;;;;5081794;28;20456;-81
2023/06/01 09:14:25;;;;;;;12.97;8.90;;;18.90;1.00;;;;;;5080684;28;20525;-82
2023/06/01 09:16:52;;;;;;;12.00;8.00;;;19.10;1.00;;;;;;5081782;28;20870;-79
2023/06/01 09:19:20;;;;;;;12.50;8.70;;;19.40;1.00;;;;;;5081969;28;20457;-80
2023/06/01 09:22:06;;;;;;;10.87;8.17;;;19.60;1.00;;;;;;5081330;28;20473;-82
2023/06/01 09:24:34;;;;;;;15.77;8.27;;;19.70;1.00;;;;;;5080396;28;20482;-80
2023/06/01 09:27:02;;;;;;;14.03;8.80;;;19.90;1.00;;;;;;5082019;28;20527;-80
2023/06/01 09:29:28;;;;;;;11.33;8.30;;;19.90;1.00;;;;;;5082359;28;20984;-82
2023/06/01 09:31:55;;;;;;;13.00;9.10;;;20.20;1.00;;;;;;5081847;28;20518;-81
2023/06/01 09:34:23;;;;;;;12.13;8.97;;;20.30;1.00;;;;;;5082112;28;20518;-81
2023/06/01 09:36:51;;;;;;;12.20;8.00;;;20.40;1.00;;;;;;5082891;28;20581;-80
2023/06/01 09:39:20;;;;;;;11.20;8.70;;;20.50;1.00;;;;;;5084696;28;20474;-81
2023/06/01 09:41:50;;;;;;;12.53;8.80;;;20.70;1.00;;;;;;5084693;28;20473;-79
2023/06/01 09:44:24;;;;;;;11.93;9.00;;;20.80;1.00;;;;;;5084572;28;20469;-80
2023/06/01 09:46:52;;;;;;;12.67;8.87;;;20.90;1.00;;;;;;5085051;28;20471;-79
2023/06/01 09:49:21;;;;;;;11.47;8.90;;;21.00;1.00;;;;;;5085926;28;20450;-78
2023/06/01 09:51:48;;;;;;;23.07;10.77;;;21.10;1.00;;;;;;5085596;28;20462;-80
2023/06/01 09:54:29;;;;;;;12.07;9.90;;;21.30;1.00;;;;;;5087393;28;20586;-80
2023/06/01 09:56:58;;;;;;;14.10;10.00;;;21.40;1.00;;;;;;5085920;28;20497;-80
2023/06/01 09:59:28;;;;;;;13.63;9.63;;;21.60;1.00;;;;;;5088520;28;20523;-80
2023/06/01 10:01:57;;;;;;;13.20;11.00;;;21.60;1.00;;;;;;5089868;28;20463;-80
2023/06/01 10:04:26;;;;;;;16.80;10.37;;;21.60;99.90;;;;;;5087667;28;20457;-80
2023/06/01 10:06:54;;;;;;;12.23;9.70;;;21.90;99.90;;;;;;5089483;28;20473;-80
2023/06/01 10:09:22;;;;;;;15.20;11.07;;;22.00;99.90;;;;;;5089484;28;20825;-80
2023/06/01 10:11:52;;;;;;;13.37;9.47;;;22.30;99.90;;;;;;5088991;28;20459;-80
2023/06/01 10:14:21;;;;;;;11.93;10.60;;;22.50;99.90;;;;;;5088453;28;20438;-80
2023/06/01 10:16:51;;;;;;;17.07;10.60;;;22.70;99.90;;;;;;5086159;28;21058;-80
2023/06/01 10:19:19;;;;;;;14.90;10.27;;;22.80;99.90;;;;;;5087685;28;20549;-80
2023/06/01 10:21:46;;;;;;;14.00;10.50;;;23.00;99.90;;;;;;5087817;28;20478;-80
2023/06/01 10:24:14;;;;;;;11.70;10.17;;;22.80;99.90;;;;;;5085834;28;20459;-80
2023/06/01 10:26:46;;;;;;;14.00;10.40;;;23.10;99.90;;;;;;5085824;28;20488;-80
2023/06/01 10:29:13;;;;;;;16.90;11.43;;;23.50;99.90;;;;;;5098222;28;20432;-80
2023/06/01 10:31:43;;;;;;;14.13;11.80;;;23.70;99.90;;;;;;5097279;28;20459;-80
2023/06/01 10:34:11;;;;;;;14.33;11.10;;;24.00;99.90;;;;;;5090641;28;20470;-80
2023/06/01 10:37:13;;;;;;;14.53;10.03;;;23.70;99.90;;;;;;5084930;28;20499;-81
2023/06/01 10:39:40;;;;;;;17.00;12.37;;;24.10;99.90;;;;;;5083781;28;20455;-80
2023/06/01 10:42:36;;;;;;;17.07;12.27;;;24.40;99.90;;;;;;5083999;28;20479;-80
2023/06/01 10:45:05;;;;;;;14.00;12.40;;;24.80;99.90;;;;;;5083745;28;20983;-81
2023/06/01 10:47:49;;;;;;;15.33;13.33;;;25.00;99.90;;;;;;5082395;22;20500;-83
2023/06/01 10:50:19;;;;;;;16.40;13.00;;;25.00;99.90;;;;;;5058195;28;20448;-83
2023/06/01 10:52:46;;;;;;;16.10;13.90;;;25.30;99.90;;;;;;5058220;28;20538;-84
2023/06/01 10:55:22;;;;;;;18.70;14.23;;;25.60;99.90;;;;;;5058420;28;20496;-83
2023/06/01 10:57:49;;;;;;;20.20;13.93;;;25.80;99.90;;;;;;5058490;28;20925;-82
2023/06/01 11:00:18;;;;;;;19.40;15.83;;;25.90;99.90;;;;;;5059669;28;20456;-82
2023/06/01 11:02:57;;;;;;;18.17;16.23;;;25.90;99.90;;;;;;5066248;28;20532;-80
2023/06/01 11:05:46;;;;;;;19.07;16.90;;;25.80;99.90;;;;;;5071551;28;20499;-83
2023/06/01 11:08:51;;;;;;;21.17;16.53;;;26.00;99.90;;;;;;5070697;28;20551;-81
2023/06/01 11:11:20;;;;;;;18.47;15.60;;;25.90;99.90;;;;;;5072664;28;20467;-81
2023/06/01 11:14:13;;;;;;;20.33;17.70;;;26.10;99.90;;;;;;5069235;28;20459;-82
2023/06/01 11:16:40;;;;;;;16.20;14.60;;;26.30;99.90;;;;;;5062291;28;20502;-83
2023/06/01 11:19:10;;;;;;;20.37;16.10;;;26.50;99.90;;;;;;5061069;28;20456;-84
2023/06/01 11:21:40;;;;;;;21.30;15.93;;;26.70;99.90;;;;;;5060418;28;20454;-83
2023/06/01 11:24:10;;;;;;;15.80;13.93;;;26.60;99.90;;;;;;5058302;28;20454;-83
2023/06/01 11:26:39;;;;;;;16.53;14.83;;;26.70;99.90;;;;;;5059605;28;20464;-83
2023/06/01 11:29:12;;;;;;;19.03;16.03;;;26.90;99.90;;;;;;5060298;28;20458;-82
2023/06/01 11:31:42;;;;;;;18.47;14.13;;;27.00;99.90;;;;;;5058757;28;20492;-84
2023/06/01 11:34:12;;;;;;;16.90;13.80;;;27.30;99.90;;;;;;5058521;28;20455;-83
2023/06/01 11:36:44;;;;;;;15.30;11.07;;;27.40;99.90;;;;;;5059132;28;20586;-82
2023/06/01 11:39:22;;;;;;;14.63;11.43;;;27.50;99.90;;;;;;5058681;28;20805;-83
2023/06/01 11:41:50;;;;;;;18.03;13.67;;;27.70;99.90;;;;;;5057814;28;20475;-82
2023/06/01 11:44:17;;;;;;;13.73;11.07;;;27.40;99.90;;;;;;5058383;28;20458;-82
2023/06/01 11:46:54;;;;;;;14.47;11.40;;;27.70;99.90;;;;;;5058416;28;20992;-82
2023/06/01 11:49:23;;;;;;;15.27;12.67;;;27.70;99.90;;;;;;5058603;28;20435;-82
2023/06/01 11:51:52;;;;;;;13.60;11.40;;;27.90;99.90;;;;;;5058276;28;20455;-84
2023/06/01 11:54:28;;;;;;;14.33;11.10;;;28.00;99.90;;;;;;5058009;28;20528;-83
2023/06/01 11:56:56;;;;;;;14.53;11.87;;;28.30;99.90;;;;;;5057773;28;20494;-82
2023/06/01 11:59:24;;;;;;;13.17;11.40;;;28.40;99.90;;;;;;5058609;28;20494;-83
2023/06/01 12:01:53;;;;;;;12.47;9.60;;;28.60;99.90;;;;;;5059034;28;20478;-82
2023/06/01 12:04:23;;;;;;;14.70;11.70;;;28.80;99.90;;;;;;5057771;28;20454;-84
2023/06/01 12:06:51;;;;;;;13.07;10.70;;;28.90;99.90;;;;;;5058649;28;20467;-83
2023/06/01 12:09:20;;;;;;;12.00;10.07;;;28.90;99.90;;;;;;5058548;28;20456;-83
2023/06/01 12:11:47;;;;;;;14.90;10.70;;;29.00;99.90;;;;;;5058721;28;20478;-84
2023/06/01 12:14:14;;;;;;;8.83;7.93;;;29.20;99.90;;;;;;5057558;28;20812;-83
2023/06/01 12:17:00;;;;;;;12.37;9.30;;;29.40;99.90;;;;;;5058425;28;20495;-84
2023/06/01 12:19:29;;;;;;;16.40;10.10;;;29.00;99.90;;;;;;5058097;28;20482;-84
2023/06/01 12:21:57;;;;;;;11.00;8.07;;;28.80;99.90;;;;;;5058301;28;20486;-85
2023/06/01 12:24:29;;;;;;;13.30;8.60;;;29.10;99.90;;;;;;5057738;28;20538;-84
2023/06/01 12:26:56;;;;;;;8.23;7.43;;;29.20;99.90;;;;;;5058676;28;20490;-84
2023/06/01 12:29:38;;;;;;;11.70;7.17;;;29.40;99.90;;;;;;5058523;28;20952;-84
2023/06/01 12:32:07;;;;;;;9.53;7.53;;;29.60;99.90;;;;;;5056335;28;20463;-84
2023/06/01 12:34:36;;;;;;;9.53;7.47;;;29.50;99.90;;;;;;5060892;28;20809;-84
2023/06/01 12:37:13;;;;;;;10.77;6.30;;;29.60;99.90;;;;;;5062414;28;20495;-84
2023/06/01 12:39:41;;;;;;;8.20;7.10;;;29.70;99.90;;;;;;5062304;28;20482;-84
2023/06/01 12:42:09;;;;;;;6.73;6.03;;;30.00;99.90;;;;;;5062345;28;20490;-84
2023/06/01 12:44:36;;;;;;;7.23;6.10;;;29.90;99.90;;;;;;5061789;28;20452;-84
2023/06/01 12:47:03;;;;;;;8.63;6.90;;;29.90;99.90;;;;;;5062119;28;20475;-83